Time,TemperatureF,DewpointF,PressureIn,WindDirection,WindDirectionDegrees,WindSpeedMPH,WindSpeedGustMPH,Humidity,HourlyPrecipIn,Conditions,Clouds,dailyrainin,SoftwareType,DateUTC
2013-08-05 00:01:00,72.4,65.5,29.85,North,-999,-999.0,0.0,79,0.00,,---,0.00,VWS V14.01,2013-08-05 04:01:00,
2013-08-05 00:02:00,72.4,65.5,29.85,North,-999,-999.0,0.0,79,0.00,,---,0.00,VWS V14.01,2013-08-05 04:02:00,
2013-08-05 00:03:00,72.4,65.5,29.85,North,-999,-999.0,0.0,79,0.00,,---,0.00,VWS V14.01,2013-08-05 04:03:00,
2013-08-05 00:08:00,72.4,65.5,29.85,North,-999,-999.0,0.0,79,0.00,,---,0.00,VWS V14.01,2013-08-05 04:08:00,
2013-08-05 00:11:00,72.4,65.5,29.85,North,-999,-999.0,0.0,79,0.00,,---,0.00,VWS V14.01,2013-08-05 04:11:00,
2013-08-05 00:16:00,72.4,65.5,29.85,North,-999,-999.0,0.0,79,0.00,,---,0.00,VWS V14.01,2013-08-05 04:16:00,
2013-08-05 00:21:00,72.5,66.0,29.85,North,-999,-999.0,0.0,80,0.00,,---,0.00,VWS V14.01,2013-08-05 04:21:00,
2013-08-05 00:26:00,72.4,65.5,29.85,North,-999,-999.0,0.0,79,0.00,,---,0.00,VWS V14.01,2013-08-05 04:26:00,
2013-08-05 00:32:00,72.4,65.5,29.85,North,-999,-999.0,0.0,79,0.00,,---,0.00,VWS V14.01,2013-08-05 04:32:00,
2013-08-05 00:37:00,72.2,65.7,29.85,North,-999,-999.0,0.0,80,0.00,,---,0.00,VWS V14.01,2013-08-05 04:37:00,
2013-08-05 00:42:00,72.2,65.7,29.85,North,-999,-999.0,0.0,80,0.00,,---,0.00,VWS V14.01,2013-08-05 04:42:00,
2013-08-05 00:47:00,72.0,65.5,29.85,North,-999,-999.0,0.0,80,0.00,,---,0.00,VWS V14.01,2013-08-05 04:47:00,
2013-08-05 00:52:00,71.8,65.3,29.85,North,-999,-999.0,0.0,80,0.00,,---,0.00,VWS V14.01,2013-08-05 04:52:00,
2013-08-05 00:58:00,71.6,65.1,29.85,North,-999,-999.0,0.0,80,0.00,,---,0.00,VWS V14.01,2013-08-05 04:58:00,
2013-08-05 01:03:00,71.5,65.0,29.85,North,-999,-999.0,0.0,80,0.00,,---,0.00,VWS V14.01,2013-08-05 05:03:00,
2013-08-05 01:08:00,71.3,64.8,29.85,North,-999,-999.0,0.0,80,0.00,,---,0.00,VWS V14.01,2013-08-05 05:08:00,
2013-08-05 01:13:00,71.3,65.2,29.85,North,-999,-999.0,0.0,81,0.00,,---,0.00,VWS V14.01,2013-08-05 05:13:00,
2013-08-05 01:18:00,71.1,65.0,29.85,North,-999,-999.0,0.0,81,0.00,,---,0.00,VWS V14.01,2013-08-05 05:18:00,
2013-08-05 01:23:00,70.9,64.8,29.85,North,-999,-999.0,0.0,81,0.00,,---,0.00,VWS V14.01,2013-08-05 05:23:00,
2013-08-05 01:29:00,70.7,64.6,29.85,North,-999,-999.0,0.0,81,0.00,,---,0.00,VWS V14.01,2013-08-05 05:29:00,
2013-08-05 01:34:00,70.6,64.8,29.85,North,-999,-999.0,0.0,82,0.00,,---,0.00,VWS V14.01,2013-08-05 05:34:00,
2013-08-05 01:39:00,70.4,64.7,29.84,North,-999,-999.0,0.0,82,0.00,,---,0.00,VWS V14.01,2013-08-05 05:39:00,
2013-08-05 01:44:00,70.2,64.4,29.84,North,-999,-999.0,0.0,82,0.00,,---,0.00,VWS V14.01,2013-08-05 05:44:00,
2013-08-05 01:50:00,70.4,64.7,29.84,North,-999,-999.0,0.0,82,0.00,,---,0.00,VWS V14.01,2013-08-05 05:50:00,
2013-08-05 01:55:00,70.4,64.7,29.84,North,-999,-999.0,0.0,82,0.00,,---,0.00,VWS V14.01,2013-08-05 05:55:00,
2013-08-05 02:00:00,70.4,65.0,29.84,North,-999,-999.0,0.0,83,0.00,,---,0.00,VWS V14.01,2013-08-05 06:00:00,
2013-08-05 02:05:00,70.6,65.2,29.84,North,-999,-999.0,0.0,83,0.00,,---,0.00,VWS V14.01,2013-08-05 06:05:00,
2013-08-05 02:10:00,70.6,64.8,29.84,North,-999,-999.0,0.0,82,0.00,,---,0.00,VWS V14.01,2013-08-05 06:10:00,
2013-08-05 02:16:00,70.4,65.0,29.84,North,-999,-999.0,0.0,83,0.00,,---,0.00,VWS V14.01,2013-08-05 06:16:00,
2013-08-05 02:21:00,70.2,64.8,29.84,North,-999,-999.0,0.0,83,0.00,,---,0.00,VWS V14.01,2013-08-05 06:21:00,
2013-08-05 02:26:00,70.2,64.8,29.84,North,-999,-999.0,0.0,83,0.00,,---,0.00,VWS V14.01,2013-08-05 06:26:00,
2013-08-05 02:31:00,70.4,65.0,29.83,North,-999,-999.0,0.0,83,0.00,,---,0.00,VWS V14.01,2013-08-05 06:31:00,
2013-08-05 02:36:00,70.6,65.2,29.84,North,-999,-999.0,0.0,83,0.00,,---,0.00,VWS V14.01,2013-08-05 06:36:00,
2013-08-05 02:42:00,70.6,65.2,29.83,North,-999,-999.0,0.0,83,0.00,,---,0.00,VWS V14.01,2013-08-05 06:42:00,
2013-08-05 02:47:00,70.4,65.0,29.83,North,-999,-999.0,0.0,83,0.00,,---,0.00,VWS V14.01,2013-08-05 06:47:00,
2013-08-05 02:52:00,70.2,65.1,29.83,North,-999,-999.0,0.0,84,0.00,,---,0.00,VWS V14.01,2013-08-05 06:52:00,
2013-08-05 02:57:00,70.2,65.1,29.83,North,-999,-999.0,0.0,84,0.00,,---,0.00,VWS V14.01,2013-08-05 06:57:00,
2013-08-05 03:02:00,70.0,64.9,29.83,North,-999,-999.0,0.0,84,0.00,,---,0.00,VWS V14.01,2013-08-05 07:02:00,
2013-08-05 03:08:00,70.0,64.9,29.82,North,-999,-999.0,0.0,84,0.00,,---,0.00,VWS V14.01,2013-08-05 07:08:00,
2013-08-05 03:13:00,70.0,64.9,29.83,North,-999,-999.0,0.0,84,0.00,,---,0.00,VWS V14.01,2013-08-05 07:13:00,
2013-08-05 03:18:00,70.0,64.9,29.83,North,-999,-999.0,0.0,84,0.00,,---,0.00,VWS V14.01,2013-08-05 07:18:00,
2013-08-05 03:23:00,70.0,64.9,29.82,North,-999,-999.0,0.0,84,0.00,,---,0.00,VWS V14.01,2013-08-05 07:23:00,
2013-08-05 03:29:00,70.0,64.9,29.82,North,-999,-999.0,0.0,84,0.00,,---,0.00,VWS V14.01,2013-08-05 07:29:00,
2013-08-05 03:34:00,70.0,64.9,29.82,North,-999,-999.0,0.0,84,0.00,,---,0.00,VWS V14.01,2013-08-05 07:34:00,
2013-08-05 03:39:00,70.2,65.5,29.82,North,-999,-999.0,0.0,85,0.00,,---,0.00,VWS V14.01,2013-08-05 07:39:00,
2013-08-05 03:44:00,70.2,65.1,29.82,North,-999,-999.0,0.0,84,0.00,,---,0.00,VWS V14.01,2013-08-05 07:44:00,
2013-08-05 03:49:00,70.2,65.1,29.82,North,-999,-999.0,0.0,84,0.00,,---,0.00,VWS V14.01,2013-08-05 07:49:00,
2013-08-05 03:54:00,70.4,65.3,29.82,North,-999,-999.0,0.0,84,0.00,,---,0.00,VWS V14.01,2013-08-05 07:54:00,
2013-08-05 03:55:00,70.4,65.3,29.82,North,-999,-999.0,0.0,84,0.00,,---,0.00,VWS V14.01,2013-08-05 07:55:00,
2013-08-05 04:00:00,70.4,65.3,29.82,North,-999,-999.0,0.0,84,0.00,,---,0.00,VWS V14.01,2013-08-05 08:00:00,
2013-08-05 04:04:00,70.2,65.1,29.82,North,-999,-999.0,0.0,84,0.00,,---,0.00,VWS V14.01,2013-08-05 08:04:00,
2013-08-05 04:10:00,70.2,65.5,29.82,North,-999,-999.0,0.0,85,0.00,,---,0.00,VWS V14.01,2013-08-05 08:10:00,
2013-08-05 04:15:00,70.0,65.3,29.82,North,-999,-999.0,0.0,85,0.00,,---,0.00,VWS V14.01,2013-08-05 08:15:00,
2013-08-05 04:20:00,70.0,65.3,29.82,North,-999,-999.0,0.0,85,0.00,,---,0.00,VWS V14.01,2013-08-05 08:20:00,
2013-08-05 04:26:00,70.2,65.5,29.82,North,-999,-999.0,0.0,85,0.00,,---,0.00,VWS V14.01,2013-08-05 08:26:00,
2013-08-05 04:31:00,70.2,65.5,29.82,North,-999,-999.0,0.0,85,0.00,,---,0.00,VWS V14.01,2013-08-05 08:31:00,
2013-08-05 04:36:00,70.0,65.3,29.82,North,-999,-999.0,0.0,85,0.00,,---,0.00,VWS V14.01,2013-08-05 08:36:00,
2013-08-05 04:42:00,70.2,65.5,29.82,North,-999,-999.0,0.0,85,0.00,,---,0.00,VWS V14.01,2013-08-05 08:42:00,
2013-08-05 04:47:00,70.2,65.5,29.83,North,-999,-999.0,0.0,85,0.00,,---,0.00,VWS V14.01,2013-08-05 08:47:00,
2013-08-05 04:52:00,70.2,65.5,29.83,North,-999,-999.0,0.0,85,0.00,,---,0.00,VWS V14.01,2013-08-05 08:52:00,
2013-08-05 04:57:00,70.2,65.1,29.83,North,-999,-999.0,0.0,84,0.00,,---,0.00,VWS V14.01,2013-08-05 08:57:00,
2013-08-05 05:02:00,70.4,65.3,29.83,North,-999,-999.0,0.0,84,0.00,,---,0.00,VWS V14.01,2013-08-05 09:02:00,
2013-08-05 05:07:00,70.6,65.5,29.83,North,-999,-999.0,0.0,84,0.00,,---,0.00,VWS V14.01,2013-08-05 09:07:00,
2013-08-05 05:12:00,70.6,65.5,29.83,North,-999,-999.0,0.0,84,0.00,,---,0.00,VWS V14.01,2013-08-05 09:12:00,
2013-08-05 05:18:00,70.6,65.5,29.83,North,-999,-999.0,0.0,84,0.00,,---,0.00,VWS V14.01,2013-08-05 09:18:00,
2013-08-05 05:24:00,70.4,65.0,29.83,North,-999,-999.0,0.0,83,0.00,,---,0.00,VWS V14.01,2013-08-05 09:24:00,
2013-08-05 05:29:00,70.4,65.0,29.83,North,-999,-999.0,0.0,83,0.00,,---,0.00,VWS V14.01,2013-08-05 09:29:00,
2013-08-05 05:35:00,70.6,64.8,29.83,North,-999,-999.0,0.0,82,0.00,,---,0.00,VWS V14.01,2013-08-05 09:35:00,
2013-08-05 05:40:00,70.6,64.8,29.83,North,-999,-999.0,0.0,82,0.00,,---,0.00,VWS V14.01,2013-08-05 09:40:00,
2013-08-05 05:45:00,70.6,64.8,29.84,North,-999,-999.0,0.0,82,0.00,,---,0.00,VWS V14.01,2013-08-05 09:45:00,
2013-08-05 05:51:00,70.4,64.7,29.84,North,-999,-999.0,0.0,82,0.00,,---,0.00,VWS V14.01,2013-08-05 09:51:00,
2013-08-05 05:57:00,70.0,64.3,29.84,North,-999,-999.0,0.0,82,0.00,,---,0.00,VWS V14.01,2013-08-05 09:57:00,
2013-08-05 06:02:00,70.0,64.6,29.84,North,-999,-999.0,0.0,83,0.00,,---,0.00,VWS V14.01,2013-08-05 10:02:00,
2013-08-05 06:07:00,70.2,64.8,29.84,North,-999,-999.0,0.0,83,0.00,,---,0.00,VWS V14.01,2013-08-05 10:07:00,
2013-08-05 06:12:00,70.0,64.3,29.84,North,-999,-999.0,0.0,82,0.00,,---,0.00,VWS V14.01,2013-08-05 10:12:00,
2013-08-05 06:17:00,70.0,64.3,29.84,North,-999,-999.0,0.0,82,0.00,,---,0.00,VWS V14.01,2013-08-05 10:17:00,
2013-08-05 06:22:00,70.0,64.3,29.84,North,-999,-999.0,0.0,82,0.00,,---,0.00,VWS V14.01,2013-08-05 10:22:00,
2013-08-05 06:28:00,69.8,64.1,29.84,North,-999,-999.0,0.0,82,0.00,,---,0.00,VWS V14.01,2013-08-05 10:28:00,
2013-08-05 06:33:00,69.8,64.1,29.84,North,-999,-999.0,0.0,82,0.00,,---,0.00,VWS V14.01,2013-08-05 10:33:00,
2013-08-05 06:38:00,69.8,64.4,29.85,North,-999,-999.0,0.0,83,0.00,,---,0.00,VWS V14.01,2013-08-05 10:38:00,
2013-08-05 06:44:00,69.7,64.3,29.84,North,-999,-999.0,0.0,83,0.00,,---,0.00,VWS V14.01,2013-08-05 10:44:00,
2013-08-05 06:50:00,69.5,64.1,29.85,North,-999,-999.0,0.0,83,0.00,,---,0.00,VWS V14.01,2013-08-05 10:50:00,
2013-08-05 06:56:00,69.5,64.1,29.85,North,-999,-999.0,0.0,83,0.00,,---,0.00,VWS V14.01,2013-08-05 10:56:00,
2013-08-05 07:02:00,69.5,64.1,29.85,North,-999,-999.0,0.0,83,0.00,,---,0.00,VWS V14.01,2013-08-05 11:02:00,
2013-08-05 07:07:00,69.7,64.3,29.85,North,-999,-999.0,0.0,83,0.00,,---,0.00,VWS V14.01,2013-08-05 11:07:00,
2013-08-05 07:12:00,69.8,64.4,29.85,North,-999,-999.0,0.0,83,0.00,,---,0.00,VWS V14.01,2013-08-05 11:12:00,
2013-08-05 07:17:00,69.8,64.1,29.86,North,-999,-999.0,0.0,82,0.00,,---,0.00,VWS V14.01,2013-08-05 11:17:00,
2013-08-05 07:22:00,70.2,64.4,29.86,North,-999,-999.0,0.0,82,0.00,,---,0.00,VWS V14.01,2013-08-05 11:22:00,
2013-08-05 07:28:00,70.2,64.4,29.86,North,-999,-999.0,0.0,82,0.00,,---,0.00,VWS V14.01,2013-08-05 11:28:00,
2013-08-05 07:35:00,70.4,64.7,29.86,North,-999,-999.0,0.0,82,0.00,,---,0.00,VWS V14.01,2013-08-05 11:35:00,
2013-08-05 07:41:00,70.6,64.8,29.86,North,-999,-999.0,0.0,82,0.00,,---,0.00,VWS V14.01,2013-08-05 11:41:00,
2013-08-05 07:47:00,70.7,64.9,29.87,North,-999,-999.0,0.0,82,0.00,,---,0.00,VWS V14.01,2013-08-05 11:47:00,
2013-08-05 07:53:00,70.9,64.8,29.86,North,-999,-999.0,0.0,81,0.00,,---,0.00,VWS V14.01,2013-08-05 11:53:00,
2013-08-05 07:58:00,71.3,65.2,29.86,North,-999,-999.0,0.0,81,0.00,,---,0.00,VWS V14.01,2013-08-05 11:58:00,
2013-08-05 08:03:00,71.6,65.1,29.86,North,-999,-999.0,0.0,80,0.00,,---,0.00,VWS V14.01,2013-08-05 12:03:00,
2013-08-05 08:08:00,72.0,65.5,29.86,North,-999,-999.0,0.0,80,0.00,,---,0.00,VWS V14.01,2013-08-05 12:08:00,
2013-08-05 08:14:00,72.4,65.5,29.87,North,-999,-999.0,0.0,79,0.00,,---,0.00,VWS V14.01,2013-08-05 12:14:00,
2013-08-05 08:19:00,72.7,66.2,29.87,North,-999,-999.0,0.0,80,0.00,,---,0.00,VWS V14.01,2013-08-05 12:19:00,
2013-08-05 08:25:00,73.1,66.2,29.87,North,-999,-999.0,0.0,79,0.00,,---,0.00,VWS V14.01,2013-08-05 12:25:00,
2013-08-05 08:30:00,73.3,66.0,29.87,North,-999,-999.0,0.0,78,0.00,,---,0.00,VWS V14.01,2013-08-05 12:30:00,
2013-08-05 08:35:00,73.4,66.1,29.87,North,-999,-999.0,0.0,78,0.00,,---,0.00,VWS V14.01,2013-08-05 12:35:00,
2013-08-05 08:41:00,73.8,66.5,29.87,North,-999,-999.0,0.0,78,0.00,,---,0.00,VWS V14.01,2013-08-05 12:41:00,
2013-08-05 08:47:00,74.2,66.5,29.87,North,-999,-999.0,0.0,77,0.00,,---,0.00,VWS V14.01,2013-08-05 12:47:00,
2013-08-05 08:52:00,74.5,66.8,29.88,North,-999,-999.0,0.0,77,0.00,,---,0.00,VWS V14.01,2013-08-05 12:52:00,
2013-08-05 08:57:00,74.7,66.6,29.88,North,-999,-999.0,0.0,76,0.00,,---,0.00,VWS V14.01,2013-08-05 12:57:00,
2013-08-05 09:03:00,75.1,67.0,29.88,North,-999,-999.0,0.0,76,0.00,,---,0.00,VWS V14.01,2013-08-05 13:03:00,
2013-08-05 09:08:00,75.2,66.7,29.88,North,-999,-999.0,0.0,75,0.00,,---,0.00,VWS V14.01,2013-08-05 13:08:00,
2013-08-05 09:13:00,75.6,67.1,29.88,North,-999,-999.0,0.0,75,0.00,,---,0.00,VWS V14.01,2013-08-05 13:13:00,
2013-08-05 09:19:00,75.6,67.1,29.88,North,-999,-999.0,0.0,75,0.00,,---,0.00,VWS V14.01,2013-08-05 13:19:00,
2013-08-05 09:25:00,76.1,67.6,29.88,North,-999,-999.0,0.0,75,0.00,,---,0.00,VWS V14.01,2013-08-05 13:25:00,
2013-08-05 09:32:00,76.5,67.6,29.89,North,-999,-999.0,0.0,74,0.00,,---,0.00,VWS V14.01,2013-08-05 13:32:00,
2013-08-05 09:37:00,76.7,67.4,29.89,North,-999,-999.0,0.0,73,0.00,,---,0.00,VWS V14.01,2013-08-05 13:37:00,
2013-08-05 09:42:00,76.7,67.4,29.89,North,-999,-999.0,0.0,73,0.00,,---,0.00,VWS V14.01,2013-08-05 13:42:00,
2013-08-05 09:47:00,76.5,66.8,29.89,North,-999,-999.0,0.0,72,0.00,,---,0.00,VWS V14.01,2013-08-05 13:47:00,
2013-08-05 09:52:00,76.7,67.4,29.88,North,-999,-999.0,0.0,73,0.00,,---,0.00,VWS V14.01,2013-08-05 13:52:00,
2013-08-05 09:58:00,77.2,67.9,29.88,North,-999,-999.0,0.0,73,0.00,,---,0.00,VWS V14.01,2013-08-05 13:58:00,
2013-08-05 10:04:00,77.9,68.2,29.88,North,-999,-999.0,0.0,72,0.00,,---,0.00,VWS V14.01,2013-08-05 14:04:00,
2013-08-05 10:09:00,78.7,68.5,29.88,North,-999,-999.0,0.0,71,0.00,,---,0.00,VWS V14.01,2013-08-05 14:09:00,
2013-08-05 10:14:00,79.2,69.0,29.89,North,-999,-999.0,0.0,71,0.00,,---,0.00,VWS V14.01,2013-08-05 14:14:00,
2013-08-05 10:19:00,80.3,70.1,29.88,North,-999,-999.0,0.0,71,0.00,,---,0.00,VWS V14.01,2013-08-05 14:19:00,
2013-08-05 10:24:00,81.0,69.0,29.89,North,-999,-999.0,0.0,67,0.00,,---,0.00,VWS V14.01,2013-08-05 14:24:00,
2013-08-05 10:29:00,80.6,69.1,29.89,North,-999,-999.0,0.0,68,0.00,,---,0.00,VWS V14.01,2013-08-05 14:29:00,
2013-08-05 10:35:00,80.8,69.3,29.89,North,-999,-999.0,0.0,68,0.00,,---,0.00,VWS V14.01,2013-08-05 14:35:00,
2013-08-05 10:40:00,80.8,69.3,29.89,North,-999,-999.0,0.0,68,0.00,,---,0.00,VWS V14.01,2013-08-05 14:40:00,
2013-08-05 10:45:00,81.5,69.9,29.89,North,-999,-999.0,0.0,68,0.00,,---,0.00,VWS V14.01,2013-08-05 14:45:00,
2013-08-05 10:50:00,81.9,69.4,29.89,North,-999,-999.0,0.0,66,0.00,,---,0.00,VWS V14.01,2013-08-05 14:50:00,
2013-08-05 10:56:00,81.7,69.2,29.89,North,-999,-999.0,0.0,66,0.00,,---,0.00,VWS V14.01,2013-08-05 14:56:00,
2013-08-05 11:01:00,82.1,70.1,29.89,North,-999,-999.0,0.0,67,0.00,,---,0.00,VWS V14.01,2013-08-05 15:01:00,
2013-08-05 11:07:00,82.6,70.1,29.89,North,-999,-999.0,0.0,66,0.00,,---,0.00,VWS V14.01,2013-08-05 15:07:00,
2013-08-05 11:12:00,82.4,69.5,29.89,North,-999,-999.0,0.0,65,0.00,,---,0.00,VWS V14.01,2013-08-05 15:12:00,
2013-08-05 11:17:00,82.4,69.9,29.89,North,-999,-999.0,0.0,66,0.00,,---,0.00,VWS V14.01,2013-08-05 15:17:00,
2013-08-05 11:22:00,84.6,72.4,29.89,North,-999,-999.0,0.0,67,0.00,,---,0.00,VWS V14.01,2013-08-05 15:22:00,
2013-08-05 11:29:00,86.4,72.8,29.89,North,-999,-999.0,0.0,64,0.00,,---,0.00,VWS V14.01,2013-08-05 15:29:00,
2013-08-05 11:35:00,87.1,72.5,29.89,North,-999,-999.0,0.0,62,0.00,,---,0.00,VWS V14.01,2013-08-05 15:35:00,
2013-08-05 11:40:00,88.0,73.8,29.88,North,-999,-999.0,0.0,63,0.00,,---,0.00,VWS V14.01,2013-08-05 15:40:00,
2013-08-05 11:45:00,88.7,73.5,29.88,North,-999,-999.0,0.0,61,0.00,,---,0.00,VWS V14.01,2013-08-05 15:45:00,
2013-08-05 11:51:00,89.1,73.9,29.88,North,-999,-999.0,0.0,61,0.00,,---,0.00,VWS V14.01,2013-08-05 15:51:00,
2013-08-05 11:56:00,88.6,73.4,29.88,North,-999,-999.0,0.0,61,0.00,,---,0.00,VWS V14.01,2013-08-05 15:56:00,
2013-08-05 12:02:00,89.3,73.6,29.88,North,-999,-999.0,0.0,60,0.00,,---,0.00,VWS V14.01,2013-08-05 16:02:00,
2013-08-05 12:07:00,88.2,72.6,29.88,North,-999,-999.0,0.0,60,0.00,,---,0.00,VWS V14.01,2013-08-05 16:07:00,
2013-08-05 12:14:00,87.1,72.0,29.88,North,-999,-999.0,0.0,61,0.00,,---,0.00,VWS V14.01,2013-08-05 16:14:00,
2013-08-05 12:19:00,88.7,73.5,29.88,North,-999,-999.0,0.0,61,0.00,,---,0.00,VWS V14.01,2013-08-05 16:19:00,
2013-08-05 12:24:00,89.5,74.3,29.87,North,-999,-999.0,0.0,61,0.00,,---,0.00,VWS V14.01,2013-08-05 16:24:00,
2013-08-05 12:29:00,90.7,74.4,29.87,North,-999,-999.0,0.0,59,0.00,,---,0.00,VWS V14.01,2013-08-05 16:29:00,
2013-08-05 12:35:00,89.6,72.4,29.87,North,-999,-999.0,0.0,57,0.00,,---,0.00,VWS V14.01,2013-08-05 16:35:00,
2013-08-05 12:39:00,87.7,71.6,29.86,North,-999,-999.0,0.0,59,0.00,,---,0.00,VWS V14.01,2013-08-05 16:39:00,
2013-08-05 12:45:00,89.1,73.4,29.86,North,-999,-999.0,0.0,60,0.00,,---,0.00,VWS V14.01,2013-08-05 16:45:00,
2013-08-05 12:50:00,91.1,73.2,29.86,North,-999,-999.0,0.0,56,0.00,,---,0.00,VWS V14.01,2013-08-05 16:50:00,
2013-08-05 12:55:00,91.3,73.4,29.86,North,-999,-999.0,0.0,56,0.00,,---,0.00,VWS V14.01,2013-08-05 16:55:00,
2013-08-05 13:01:00,92.2,73.2,29.86,North,-999,-999.0,0.0,54,0.00,,---,0.00,VWS V14.01,2013-08-05 17:01:00,
2013-08-05 13:06:00,90.4,70.9,29.85,North,-999,-999.0,0.0,53,0.00,,---,0.00,VWS V14.01,2013-08-05 17:06:00,
2013-08-05 13:11:00,90.0,71.7,29.85,North,-999,-999.0,0.0,55,0.00,,---,0.00,VWS V14.01,2013-08-05 17:11:00,
2013-08-05 13:17:00,89.1,70.8,29.85,North,-999,-999.0,0.0,55,0.00,,---,0.00,VWS V14.01,2013-08-05 17:17:00,
2013-08-05 13:22:00,89.3,71.0,29.85,North,-999,-999.0,0.0,55,0.00,,---,0.00,VWS V14.01,2013-08-05 17:22:00,
2013-08-05 13:27:00,90.5,72.1,29.85,North,-999,-999.0,0.0,55,0.00,,---,0.00,VWS V14.01,2013-08-05 17:27:00,
2013-08-05 13:33:00,91.6,73.2,29.85,North,-999,-999.0,0.0,55,0.00,,---,0.00,VWS V14.01,2013-08-05 17:33:00,
2013-08-05 13:39:00,91.1,72.7,29.85,North,-999,-999.0,0.0,55,0.00,,---,0.00,VWS V14.01,2013-08-05 17:39:00,
2013-08-05 13:44:00,89.8,72.0,29.85,North,-999,-999.0,0.0,56,0.00,,---,0.00,VWS V14.01,2013-08-05 17:44:00,
2013-08-05 13:50:00,88.2,71.6,29.84,North,-999,-999.0,0.0,58,0.00,,---,0.00,VWS V14.01,2013-08-05 17:50:00,
2013-08-05 13:55:00,90.2,73.9,29.84,North,-999,-999.0,0.0,59,0.00,,---,0.00,VWS V14.01,2013-08-05 17:55:00,
2013-08-05 14:00:00,90.7,72.3,29.84,North,-999,-999.0,0.0,55,0.00,,---,0.00,VWS V14.01,2013-08-05 18:00:00,
2013-08-05 14:06:00,90.7,73.4,29.84,North,-999,-999.0,0.0,57,0.00,,---,0.00,VWS V14.01,2013-08-05 18:06:00,
2013-08-05 14:12:00,91.8,72.8,29.84,North,-999,-999.0,0.0,54,0.00,,---,0.00,VWS V14.01,2013-08-05 18:12:00,
2013-08-05 14:18:00,90.0,71.7,29.84,North,-999,-999.0,0.0,55,0.00,,---,0.00,VWS V14.01,2013-08-05 18:18:00,
2013-08-05 14:24:00,89.5,71.7,29.84,North,-999,-999.0,0.0,56,0.00,,---,0.00,VWS V14.01,2013-08-05 18:24:00,
2013-08-05 14:29:00,90.7,73.4,29.83,North,-999,-999.0,0.0,57,0.00,,---,0.00,VWS V14.01,2013-08-05 18:29:00,
2013-08-05 14:34:00,90.2,71.3,29.83,North,-999,-999.0,0.0,54,0.00,,---,0.00,VWS V14.01,2013-08-05 18:34:00,
2013-08-05 14:41:00,88.6,70.4,29.83,North,-999,-999.0,0.0,55,0.00,,---,0.00,VWS V14.01,2013-08-05 18:41:00,
2013-08-05 14:47:00,90.4,71.5,29.82,North,-999,-999.0,0.0,54,0.00,,---,0.00,VWS V14.01,2013-08-05 18:47:00,
2013-08-05 14:52:00,92.3,73.3,29.82,North,-999,-999.0,0.0,54,0.00,,---,0.00,VWS V14.01,2013-08-05 18:52:00,
2013-08-05 14:58:00,94.0,72.5,29.83,North,-999,-999.0,0.0,50,0.00,,---,0.00,VWS V14.01,2013-08-05 18:58:00,
2013-08-05 15:03:00,94.9,73.4,29.83,North,-999,-999.0,0.0,50,0.00,,---,0.00,VWS V14.01,2013-08-05 19:03:00,
2013-08-05 15:08:00,94.5,71.8,29.83,North,-999,-999.0,0.0,48,0.00,,---,0.00,VWS V14.01,2013-08-05 19:08:00,
2013-08-05 15:13:00,92.0,70.7,29.83,North,-999,-999.0,0.0,50,0.00,,---,0.00,VWS V14.01,2013-08-05 19:13:00,
2013-08-05 15:18:00,90.4,70.4,29.83,North,-999,-999.0,0.0,52,0.00,,---,0.00,VWS V14.01,2013-08-05 19:18:00,
2013-08-05 15:24:00,90.0,70.6,29.83,North,-999,-999.0,0.0,53,0.00,,---,0.00,VWS V14.01,2013-08-05 19:24:00,
2013-08-05 15:29:00,89.6,70.8,29.83,North,-999,-999.0,0.0,54,0.00,,---,0.00,VWS V14.01,2013-08-05 19:29:00,
2013-08-05 15:34:00,90.7,72.3,29.83,North,-999,-999.0,0.0,55,0.00,,---,0.00,VWS V14.01,2013-08-05 19:34:00,
2013-08-05 15:39:00,92.3,71.6,29.83,North,-999,-999.0,0.0,51,0.00,,---,0.00,VWS V14.01,2013-08-05 19:39:00,
2013-08-05 15:45:00,94.1,72.6,29.83,North,-999,-999.0,0.0,50,0.00,,---,0.00,VWS V14.01,2013-08-05 19:45:00,
2013-08-05 15:50:00,94.0,71.3,29.82,North,-999,-999.0,0.0,48,0.00,,---,0.00,VWS V14.01,2013-08-05 19:50:00,
2013-08-05 15:56:00,94.0,71.3,29.82,North,-999,-999.0,0.0,48,0.00,,---,0.00,VWS V14.01,2013-08-05 19:56:00,
2013-08-05 16:02:00,94.7,70.7,29.82,North,-999,-999.0,0.0,46,0.00,,---,0.00,VWS V14.01,2013-08-05 20:02:00,
2013-08-05 16:08:00,93.2,70.0,29.82,North,-999,-999.0,0.0,47,0.00,,---,0.00,VWS V14.01,2013-08-05 20:08:00,
2013-08-05 16:13:00,92.0,70.7,29.82,North,-999,-999.0,0.0,50,0.00,,---,0.00,VWS V14.01,2013-08-05 20:13:00,
2013-08-05 16:18:00,93.2,70.6,29.82,North,-999,-999.0,0.0,48,0.00,,---,0.00,VWS V14.01,2013-08-05 20:18:00,
2013-08-05 16:23:00,93.2,70.0,29.82,North,-999,-999.0,0.0,47,0.00,,---,0.00,VWS V14.01,2013-08-05 20:23:00,
2013-08-05 16:29:00,93.4,70.8,29.82,North,-999,-999.0,0.0,48,0.00,,---,0.00,VWS V14.01,2013-08-05 20:29:00,
2013-08-05 16:34:00,92.5,70.0,29.82,North,-999,-999.0,0.0,48,0.00,,---,0.00,VWS V14.01,2013-08-05 20:34:00,
2013-08-05 16:39:00,94.3,72.8,29.81,North,-999,-999.0,0.0,50,0.00,,---,0.00,VWS V14.01,2013-08-05 20:39:00,
2013-08-05 16:44:00,95.9,71.8,29.81,North,-999,-999.0,0.0,46,0.00,,---,0.00,VWS V14.01,2013-08-05 20:44:00,
2013-08-05 16:49:00,96.3,72.2,29.81,North,-999,-999.0,0.0,46,0.00,,---,0.00,VWS V14.01,2013-08-05 20:49:00,
2013-08-05 16:55:00,96.5,72.3,29.81,North,-999,-999.0,0.0,46,0.00,,---,0.00,VWS V14.01,2013-08-05 20:55:00,
2013-08-05 17:01:00,95.4,70.1,29.80,North,-999,-999.0,0.0,44,0.00,,---,0.00,VWS V14.01,2013-08-05 21:01:00,
2013-08-05 17:07:00,93.6,69.1,29.80,North,-999,-999.0,0.0,45,0.00,,---,0.00,VWS V14.01,2013-08-05 21:07:00,
2013-08-05 17:13:00,92.7,69.5,29.80,North,-999,-999.0,0.0,47,0.00,,---,0.00,VWS V14.01,2013-08-05 21:13:00,
2013-08-05 17:19:00,92.0,68.9,29.80,North,-999,-999.0,0.0,47,0.00,,---,0.00,VWS V14.01,2013-08-05 21:19:00,
2013-08-05 17:24:00,92.3,70.4,29.80,North,-999,-999.0,0.0,49,0.00,,---,0.00,VWS V14.01,2013-08-05 21:24:00,
2013-08-05 17:30:00,92.5,69.3,29.80,North,-999,-999.0,0.0,47,0.00,,---,0.00,VWS V14.01,2013-08-05 21:30:00,
2013-08-05 17:35:00,92.2,70.3,29.79,North,-999,-999.0,0.0,49,0.00,,---,0.00,VWS V14.01,2013-08-05 21:35:00,
2013-08-05 17:40:00,91.8,69.3,29.79,North,-999,-999.0,0.0,48,0.00,,---,0.00,VWS V14.01,2013-08-05 21:40:00,
2013-08-05 17:46:00,92.2,70.3,29.79,North,-999,-999.0,0.0,49,0.00,,---,0.00,VWS V14.01,2013-08-05 21:46:00,
2013-08-05 17:52:00,92.9,70.3,29.79,North,-999,-999.0,0.0,48,0.00,,---,0.00,VWS V14.01,2013-08-05 21:52:00,
2013-08-05 17:57:00,92.9,70.3,29.79,North,-999,-999.0,0.0,48,0.00,,---,0.00,VWS V14.01,2013-08-05 21:57:00,
2013-08-05 18:02:00,93.1,71.1,29.79,North,-999,-999.0,0.0,49,0.00,,---,0.00,VWS V14.01,2013-08-05 22:02:00,
2013-08-05 18:08:00,92.2,69.7,29.79,North,-999,-999.0,0.0,48,0.00,,---,0.00,VWS V14.01,2013-08-05 22:08:00,
2013-08-05 18:13:00,92.3,70.4,29.79,North,-999,-999.0,0.0,49,0.00,,---,0.00,VWS V14.01,2013-08-05 22:13:00,
2013-08-05 18:19:00,92.2,70.3,29.79,North,-999,-999.0,0.0,49,0.00,,---,0.00,VWS V14.01,2013-08-05 22:19:00,
2013-08-05 18:26:00,91.6,69.8,29.80,North,-999,-999.0,0.0,49,0.00,,---,0.00,VWS V14.01,2013-08-05 22:26:00,
2013-08-05 18:31:00,91.3,70.1,29.80,North,-999,-999.0,0.0,50,0.00,,---,0.00,VWS V14.01,2013-08-05 22:31:00,
2013-08-05 18:36:00,91.4,70.2,29.79,North,-999,-999.0,0.0,50,0.00,,---,0.00,VWS V14.01,2013-08-05 22:36:00,
2013-08-05 18:41:00,92.0,70.1,29.80,North,-999,-999.0,0.0,49,0.00,,---,0.00,VWS V14.01,2013-08-05 22:41:00,
2013-08-05 18:46:00,91.8,69.9,29.79,North,-999,-999.0,0.0,49,0.00,,---,0.00,VWS V14.01,2013-08-05 22:46:00,
2013-08-05 18:52:00,91.1,69.9,29.79,North,-999,-999.0,0.0,50,0.00,,---,0.00,VWS V14.01,2013-08-05 22:52:00,
2013-08-05 18:58:00,90.2,69.6,29.79,North,-999,-999.0,0.0,51,0.00,,---,0.00,VWS V14.01,2013-08-05 22:58:00,
2013-08-05 19:04:00,89.1,69.2,29.79,North,-999,-999.0,0.0,52,0.00,,---,0.00,VWS V14.01,2013-08-05 23:04:00,
2013-08-05 19:09:00,87.8,69.1,29.79,North,-999,-999.0,0.0,54,0.00,,---,0.00,VWS V14.01,2013-08-05 23:09:00,
2013-08-05 19:14:00,86.8,68.7,29.79,North,-999,-999.0,0.0,55,0.00,,---,0.00,VWS V14.01,2013-08-05 23:14:00,
2013-08-05 19:21:00,86.4,68.9,29.79,North,-999,-999.0,0.0,56,0.00,,---,0.00,VWS V14.01,2013-08-05 23:21:00,
2013-08-05 19:26:00,86.0,69.0,29.79,North,-999,-999.0,0.0,57,0.00,,---,0.00,VWS V14.01,2013-08-05 23:26:00,
2013-08-05 19:32:00,85.3,68.9,29.79,North,-999,-999.0,0.0,58,0.00,,---,0.00,VWS V14.01,2013-08-05 23:32:00,
2013-08-05 19:37:00,84.4,68.5,29.79,North,-999,-999.0,0.0,59,0.00,,---,0.00,VWS V14.01,2013-08-05 23:37:00,
2013-08-05 19:42:00,83.9,69.0,29.79,North,-999,-999.0,0.0,61,0.00,,---,0.00,VWS V14.01,2013-08-05 23:42:00,
2013-08-05 19:48:00,83.5,69.1,29.79,North,-999,-999.0,0.0,62,0.00,,---,0.00,VWS V14.01,2013-08-05 23:48:00,
2013-08-05 19:53:00,82.8,68.5,29.80,North,-999,-999.0,0.0,62,0.00,,---,0.00,VWS V14.01,2013-08-05 23:53:00,
2013-08-05 19:58:00,82.4,68.6,29.80,North,-999,-999.0,0.0,63,0.00,,---,0.00,VWS V14.01,2013-08-05 23:58:00,
2013-08-05 20:03:00,81.9,69.0,29.80,North,-999,-999.0,0.0,65,0.00,,---,0.00,VWS V14.01,2013-08-06 00:03:00,
2013-08-05 20:09:00,81.4,68.5,29.80,North,-999,-999.0,0.0,65,0.00,,---,0.00,VWS V14.01,2013-08-06 00:09:00,
2013-08-05 20:15:00,81.0,68.6,29.80,North,-999,-999.0,0.0,66,0.00,,---,0.00,VWS V14.01,2013-08-06 00:15:00,
2013-08-05 20:21:00,80.3,68.3,29.80,North,-999,-999.0,0.0,67,0.00,,---,0.00,VWS V14.01,2013-08-06 00:21:00,
2013-08-05 20:26:00,79.9,68.8,29.81,North,-999,-999.0,0.0,69,0.00,,---,0.00,VWS V14.01,2013-08-06 00:26:00,
2013-08-05 20:33:00,79.6,69.0,29.81,North,-999,-999.0,0.0,70,0.00,,---,0.00,VWS V14.01,2013-08-06 00:33:00,
2013-08-05 20:38:00,79.4,68.8,29.81,North,-999,-999.0,0.0,70,0.00,,---,0.00,VWS V14.01,2013-08-06 00:38:00,
2013-08-05 20:43:00,79.4,69.2,29.81,North,-999,-999.0,0.0,71,0.00,,---,0.00,VWS V14.01,2013-08-06 00:43:00,
2013-08-05 20:49:00,79.2,69.0,29.81,North,-999,-999.0,0.0,71,0.00,,---,0.00,VWS V14.01,2013-08-06 00:49:00,
2013-08-05 20:54:00,78.8,68.6,29.81,North,-999,-999.0,0.0,71,0.00,,---,0.00,VWS V14.01,2013-08-06 00:54:00,
2013-08-05 20:59:00,78.8,69.0,29.81,North,-999,-999.0,0.0,72,0.00,,---,0.00,VWS V14.01,2013-08-06 00:59:00,
2013-08-05 21:04:00,78.3,68.9,29.81,North,-999,-999.0,0.0,73,0.00,,---,0.00,VWS V14.01,2013-08-06 01:04:00,
2013-08-05 21:09:00,78.1,69.1,29.81,North,-999,-999.0,0.0,74,0.00,,---,0.00,VWS V14.01,2013-08-06 01:09:00,
2013-08-05 21:14:00,77.8,68.9,29.81,North,-999,-999.0,0.0,74,0.00,,---,0.00,VWS V14.01,2013-08-06 01:14:00,
2013-08-05 21:20:00,77.4,68.9,29.81,North,-999,-999.0,0.0,75,0.00,,---,0.00,VWS V14.01,2013-08-06 01:20:00,
2013-08-05 21:25:00,77.2,68.7,29.81,North,-999,-999.0,0.0,75,0.00,,---,0.00,VWS V14.01,2013-08-06 01:25:00,
2013-08-05 21:30:00,77.0,68.9,29.81,North,-999,-999.0,0.0,76,0.00,,---,0.00,VWS V14.01,2013-08-06 01:30:00,
2013-08-05 21:36:00,76.7,68.9,29.81,North,-999,-999.0,0.0,77,0.00,,---,0.00,VWS V14.01,2013-08-06 01:36:00,
2013-08-05 21:41:00,76.5,68.8,29.81,North,-999,-999.0,0.0,77,0.00,,---,0.00,VWS V14.01,2013-08-06 01:41:00,
2013-08-05 21:47:00,76.1,68.8,29.81,North,-999,-999.0,0.0,78,0.00,,---,0.00,VWS V14.01,2013-08-06 01:47:00,
2013-08-05 21:52:00,76.1,68.8,29.81,North,-999,-999.0,0.0,78,0.00,,---,0.00,VWS V14.01,2013-08-06 01:52:00,
2013-08-05 21:57:00,76.0,68.7,29.81,North,-999,-999.0,0.0,78,0.00,,---,0.00,VWS V14.01,2013-08-06 01:57:00,
2013-08-05 22:02:00,75.8,68.5,29.82,North,-999,-999.0,0.0,78,0.00,,---,0.00,VWS V14.01,2013-08-06 02:02:00,
2013-08-05 22:07:00,75.6,68.6,29.81,North,-999,-999.0,0.0,79,0.00,,---,0.00,VWS V14.01,2013-08-06 02:07:00,
2013-08-05 22:13:00,75.4,68.4,29.81,North,-999,-999.0,0.0,79,0.00,,---,0.00,VWS V14.01,2013-08-06 02:13:00,
2013-08-05 22:18:00,75.4,68.4,29.81,North,-999,-999.0,0.0,79,0.00,,---,0.00,VWS V14.01,2013-08-06 02:18:00,
2013-08-05 22:23:00,75.2,68.6,29.81,North,-999,-999.0,0.0,80,0.00,,---,0.00,VWS V14.01,2013-08-06 02:23:00,
2013-08-05 22:28:00,75.2,68.6,29.81,North,-999,-999.0,0.0,80,0.00,,---,0.00,VWS V14.01,2013-08-06 02:28:00,
2013-08-05 22:36:00,75.2,68.6,29.81,North,-999,-999.0,0.0,80,0.00,,---,0.00,VWS V14.01,2013-08-06 02:36:00,
2013-08-05 23:00:00,75.8,69.6,29.81,North,-999,-999.0,0.0,81,0.00,,---,0.00,VWS V14.01,2013-08-06 03:00:00,
2013-08-05 23:05:00,75.8,69.6,29.81,North,-999,-999.0,0.0,81,0.00,,---,0.00,VWS V14.01,2013-08-06 03:05:00,
2013-08-05 23:59:00,76.1,69.5,29.81,North,-999,-999.0,0.0,80,0.00,,---,0.00,VWS V14.01,2013-08-06 03:59:00,